createdAt,value
2024-05-09T00:03:10.944Z,9.98
2024-05-09T00:08:15.619Z,9.98
2024-05-09T00:13:20.135Z,9.90
2024-05-09T00:18:23.715Z,9.87
2024-05-09T00:23:27.196Z,9.84
2024-05-09T00:28:30.636Z,9.80
2024-05-09T00:33:34.303Z,9.77
2024-05-09T00:38:37.866Z,9.80
2024-05-09T00:43:41.657Z,9.73
2024-05-09T00:48:45.541Z,9.65
2024-05-09T00:53:49.900Z,9.81
2024-05-09T00:58:53.873Z,9.57
2024-05-09T01:03:57.713Z,9.45
2024-05-09T01:09:00.956Z,9.42
2024-05-09T01:14:04.461Z,9.40
2024-05-09T01:19:24.225Z,9.33
2024-05-09T01:24:27.865Z,9.43
2024-05-09T01:29:31.246Z,9.42
2024-05-09T01:34:34.632Z,9.29
2024-05-09T01:39:38.003Z,9.29
2024-05-09T01:44:41.526Z,9.23
2024-05-09T01:49:44.998Z,9.22
2024-05-09T01:54:48.409Z,9.19
2024-05-09T01:59:51.815Z,9.12
2024-05-09T02:04:55.462Z,9.05
2024-05-09T02:09:59.073Z,9.05
2024-05-09T02:15:02.564Z,9.01
2024-05-09T02:20:29.956Z,9.02
2024-05-09T02:25:57.249Z,9.11
2024-05-09T02:31:14.387Z,9.20
2024-05-09T02:36:36.181Z,8.89
2024-05-09T02:41:57.963Z,8.79
2024-05-09T02:47:04.733Z,8.75
2024-05-09T02:52:08.040Z,8.80
2024-05-09T02:57:11.640Z,8.74
2024-05-09T03:02:15.300Z,8.43
2024-05-09T03:07:20.193Z,8.20
2024-05-09T03:12:24.052Z,8.22
2024-05-09T03:17:32.146Z,8.23
2024-05-09T03:22:36.046Z,8.20
2024-05-09T03:27:39.698Z,8.26
2024-05-09T03:32:45.411Z,8.19
2024-05-09T03:37:49.132Z,8.05
2024-05-09T03:42:52.484Z,7.99
2024-05-09T03:47:56.270Z,7.84
2024-05-09T03:53:00.275Z,7.86
2024-05-09T03:58:03.846Z,8.19
2024-05-09T04:03:10.181Z,7.93
2024-05-09T04:08:16.139Z,8.18
2024-05-09T04:13:19.334Z,8.12
2024-05-09T04:18:22.828Z,8.31
2024-05-09T04:23:26.335Z,8.42
2024-05-09T04:28:29.755Z,8.59
2024-05-09T04:33:33.391Z,8.66
2024-05-09T04:39:08.725Z,8.76
2024-05-09T04:44:12.286Z,9.04
2024-05-09T04:49:16.038Z,9.29
2024-05-09T04:54:26.272Z,9.45
2024-05-09T04:59:37.471Z,9.76
2024-05-09T05:04:41.777Z,10.04
2024-05-09T05:09:45.264Z,10.48
2024-05-09T05:14:48.663Z,10.84
2024-05-09T05:19:52.303Z,11.24
2024-05-09T05:24:55.835Z,11.46
2024-05-09T05:29:59.361Z,11.87
2024-05-09T05:35:02.925Z,12.16
2024-05-09T05:40:09.383Z,12.36
2024-05-09T05:45:12.922Z,12.75
2024-05-09T05:50:24.599Z,13.01
2024-05-09T05:55:35.501Z,13.41
2024-05-09T06:00:40.449Z,13.90
2024-05-09T06:05:46.268Z,14.26
2024-05-09T06:10:49.950Z,14.45
2024-05-09T06:15:54.820Z,15.03
2024-05-09T06:20:58.362Z,15.24
2024-05-09T06:26:02.012Z,15.44
2024-05-09T06:31:05.513Z,15.78
2024-05-09T06:36:09.272Z,15.76
2024-05-09T06:41:12.885Z,16.23
2024-05-09T06:46:16.313Z,16.19
2024-05-09T06:51:19.641Z,16.03
2024-05-09T06:56:23.866Z,16.51
2024-05-09T07:01:27.411Z,16.59
2024-05-09T07:06:30.809Z,17.02
2024-05-09T07:11:34.314Z,17.56
2024-05-09T07:16:37.781Z,17.41
2024-05-09T07:21:41.460Z,17.47
2024-05-09T07:26:44.966Z,18.02
2024-05-09T07:31:48.377Z,17.78
2024-05-09T07:36:52.593Z,17.81
2024-05-09T07:41:56.863Z,18.17
2024-05-09T07:57:13.766Z,18.77
2024-05-09T08:02:17.337Z,18.96
2024-05-09T08:07:21.131Z,19.27
2024-05-09T08:12:24.519Z,19.39
2024-05-09T08:17:27.812Z,19.34
2024-05-09T08:22:32.421Z,19.47
2024-05-09T08:27:37.117Z,19.82
2024-05-09T08:32:41.611Z,19.91
2024-05-09T08:37:45.064Z,19.69
2024-05-09T08:42:56.391Z,20.51
2024-05-09T08:48:04.210Z,19.92
2024-05-09T08:53:09.113Z,19.72
2024-05-09T08:58:20.246Z,20.82
2024-05-09T09:03:28.744Z,21.08
2024-05-09T09:08:32.505Z,20.88
2024-05-09T09:13:35.886Z,21.81
2024-05-09T09:18:39.514Z,21.48
2024-05-09T09:23:42.952Z,21.84
2024-05-09T09:28:46.190Z,21.85
2024-05-09T09:33:49.784Z,22.02
2024-05-09T09:38:53.359Z,21.66
2024-05-09T09:43:58.670Z,21.30
2024-05-09T09:49:02.520Z,21.66
2024-05-09T09:54:08.177Z,21.98
2024-05-09T09:59:14.871Z,22.55
2024-05-09T10:04:19.310Z,21.89
2024-05-09T10:09:23.420Z,22.22
2024-05-09T10:14:26.764Z,22.33
2024-05-09T10:19:31.887Z,22.74
2024-05-09T10:25:08.360Z,20.91
2024-05-09T10:30:29.701Z,20.96
2024-05-09T10:35:39.142Z,21.33
2024-05-09T10:40:43.522Z,21.73
2024-05-09T10:45:47.092Z,22.80
2024-05-09T10:50:50.676Z,22.34
2024-05-09T10:56:01.827Z,22.30
2024-05-09T11:01:07.254Z,22.83
2024-05-09T11:06:13.014Z,22.66
2024-05-09T11:11:17.206Z,22.98
2024-05-09T11:16:22.394Z,23.23
2024-05-09T11:21:26.346Z,22.64
2024-05-09T11:26:32.257Z,22.62
2024-05-09T11:31:49.065Z,22.96
2024-05-09T11:36:52.653Z,22.84
2024-05-09T11:41:56.040Z,21.88
2024-05-09T11:46:59.680Z,21.80
2024-05-09T11:52:03.163Z,22.13
2024-05-09T11:57:07.203Z,23.05
2024-05-09T12:02:12.032Z,23.33
2024-05-09T12:07:20.996Z,22.68
2024-05-09T12:12:24.447Z,22.70
2024-05-09T12:17:29.207Z,21.59
2024-05-09T12:22:32.755Z,22.07
2024-05-09T12:27:37.566Z,21.16
2024-05-09T12:32:41.292Z,20.79
2024-05-09T12:37:45.474Z,20.92
2024-05-09T12:42:54.079Z,20.40
2024-05-09T12:48:08.172Z,21.53
2024-05-09T12:53:12.314Z,21.69
2024-05-09T12:58:16.984Z,23.16
2024-05-09T13:03:21.033Z,23.05
2024-05-09T13:08:24.984Z,23.02
2024-05-09T13:13:30.310Z,23.79
2024-05-09T13:18:36.556Z,24.16
2024-05-09T13:23:40.140Z,22.74
2024-05-09T13:28:43.610Z,23.48
2024-05-09T13:33:47.172Z,23.41
2024-05-09T13:38:50.837Z,24.11
2024-05-09T13:43:54.386Z,24.26
2024-05-09T13:48:57.899Z,24.28
2024-05-09T13:54:33.692Z,23.79
2024-05-09T13:59:40.526Z,23.87
2024-05-09T14:05:30.320Z,23.47
2024-05-09T14:11:25.891Z,24.47
2024-05-09T14:16:33.610Z,24.16
2024-05-09T14:21:37.216Z,24.19
2024-05-09T14:27:19.311Z,24.11
2024-05-09T14:32:28.778Z,23.73
2024-05-09T14:37:33.152Z,22.74
2024-05-09T14:42:37.725Z,23.37
2024-05-09T14:47:45.026Z,23.58
2024-05-09T14:52:48.445Z,22.90
2024-05-09T14:57:52.019Z,22.34
2024-05-09T15:02:56.913Z,22.87
2024-05-09T15:08:01.019Z,22.75
2024-05-09T15:13:05.017Z,22.03
2024-05-09T15:18:09.205Z,22.46
2024-05-09T15:23:12.897Z,22.55
2024-05-09T15:28:16.755Z,21.81
2024-05-09T15:33:20.740Z,22.15
2024-05-09T15:38:24.482Z,22.06
2024-05-09T15:43:28.485Z,21.16
2024-05-09T15:48:32.300Z,20.93
2024-05-09T15:53:35.927Z,21.79
2024-05-09T15:58:39.487Z,21.08
2024-05-09T16:03:43.308Z,20.95
2024-05-09T16:08:46.953Z,20.95
2024-05-09T16:14:08.733Z,21.30
2024-05-09T16:19:46.748Z,21.25
2024-05-09T16:24:50.402Z,21.02
2024-05-09T16:29:58.270Z,20.53
2024-05-09T16:35:01.938Z,20.60
2024-05-09T16:40:07.755Z,20.03
2024-05-09T16:45:13.592Z,20.21
2024-05-09T16:50:25.674Z,19.62
2024-05-09T16:55:32.344Z,19.00
2024-05-09T17:00:41.249Z,19.35
2024-05-09T17:05:47.659Z,19.23
2024-05-09T17:10:51.997Z,18.89
2024-05-09T17:15:55.868Z,18.37
2024-05-09T17:20:59.399Z,18.32
2024-05-09T17:26:03.698Z,18.23
2024-05-09T17:31:07.992Z,17.99
2024-05-09T17:36:11.549Z,17.85
2024-05-09T17:41:15.101Z,17.56
2024-05-09T17:46:18.621Z,17.22
2024-05-09T17:51:22.358Z,17.15
2024-05-09T17:56:26.306Z,16.88
2024-05-09T18:01:30.324Z,16.64
2024-05-09T18:06:34.287Z,16.23
2024-05-09T18:11:37.819Z,15.89
2024-05-09T18:16:41.322Z,15.43
2024-05-09T18:21:44.904Z,15.18
2024-05-09T18:26:50.050Z,14.54
2024-05-09T18:31:53.638Z,14.21
2024-05-09T18:36:57.750Z,14.15
2024-05-09T18:42:02.624Z,13.92
2024-05-09T18:47:07.240Z,13.36
2024-05-09T18:52:12.766Z,12.76
2024-05-09T18:57:17.028Z,12.41
2024-05-09T19:02:20.756Z,12.25
2024-05-09T19:07:25.259Z,12.23
2024-05-09T19:13:01.104Z,11.99
2024-05-09T19:18:37.385Z,11.64
2024-05-09T19:23:47.067Z,11.61
2024-05-09T19:28:55.718Z,11.26
2024-05-09T19:33:59.088Z,11.04
2024-05-09T19:39:07.133Z,11.10
2024-05-09T19:44:12.185Z,10.84
2024-05-09T19:49:16.251Z,10.66
2024-05-09T19:54:20.611Z,10.41
2024-05-09T19:59:24.339Z,10.54
2024-05-09T20:04:27.923Z,10.33
2024-05-09T20:09:31.644Z,10.13
2024-05-09T20:14:36.225Z,9.90
2024-05-09T20:19:39.998Z,9.71
2024-05-09T20:24:43.229Z,9.65
2024-05-09T20:29:46.763Z,9.49
2024-05-09T20:34:52.139Z,9.36
2024-05-09T20:39:55.618Z,9.20
2024-05-09T20:44:59.133Z,8.84
2024-05-09T20:50:02.750Z,8.82
2024-05-09T20:55:06.700Z,8.78
2024-05-09T21:00:15.372Z,8.66
2024-05-09T21:05:22.633Z,8.43
2024-05-09T21:10:27.276Z,8.60
2024-05-09T21:15:33.268Z,8.53
2024-05-09T21:20:37.851Z,8.34
2024-05-09T21:25:41.594Z,8.26
2024-05-09T21:30:45.043Z,8.20
2024-05-09T21:35:48.524Z,8.10
2024-05-09T21:40:54.484Z,8.00
2024-05-09T21:45:57.909Z,7.88
2024-05-09T21:51:01.457Z,7.48
2024-05-09T21:56:04.982Z,7.78
2024-05-09T22:01:08.535Z,7.66
2024-05-09T22:06:12.094Z,7.28
2024-05-09T22:11:15.645Z,7.17
2024-05-09T22:16:19.107Z,7.00
2024-05-09T22:21:22.759Z,7.34
2024-05-09T22:26:26.122Z,7.42
2024-05-09T22:31:29.516Z,7.21
2024-05-09T22:36:32.851Z,7.19
2024-05-09T22:41:38.403Z,7.09
2024-05-09T22:46:43.413Z,7.18
2024-05-09T22:51:46.984Z,7.05
2024-05-09T22:57:12.935Z,6.90
2024-05-09T23:02:39.274Z,6.74
2024-05-09T23:07:46.905Z,6.77
2024-05-09T23:12:50.333Z,6.77
2024-05-09T23:17:54.034Z,6.64
2024-05-09T23:22:58.620Z,6.74
2024-05-09T23:28:02.681Z,6.65
2024-05-09T23:33:06.833Z,6.64
2024-05-09T23:38:10.527Z,6.45
2024-05-09T23:43:15.018Z,6.49
2024-05-09T23:48:19.590Z,6.51
2024-05-09T23:53:23.114Z,6.40
2024-05-09T23:58:31.960Z,6.38
